sensor_id;sensor_type;location;lat;lon;timestamp;P1;durP1;ratioP1;P2;durP2;ratioP2
44842;SDS011;31884;52.538;13.820;2022-09-27T00:01:11;2.90;;;1.75;;
44842;SDS011;31884;52.538;13.820;2022-09-27T00:03:38;3.90;;;1.90;;
44842;SDS011;31884;52.538;13.820;2022-09-27T00:06:08;2.33;;;1.65;;
44842;SDS011;31884;52.538;13.820;2022-09-27T00:08:37;3.17;;;1.60;;
44842;SDS011;31884;52.538;13.820;2022-09-27T00:11:04;4.63;;;1.90;;
44842;SDS011;31884;52.538;13.820;2022-09-27T00:13:31;4.88;;;2.20;;
44842;SDS011;31884;52.538;13.820;2022-09-27T00:15:58;3.92;;;2.00;;
44842;SDS011;31884;52.538;13.820;2022-09-27T00:18:25;4.35;;;2.15;;
44842;SDS011;31884;52.538;13.820;2022-09-27T00:20:51;2.30;;;1.77;;
44842;SDS011;31884;52.538;13.820;2022-09-27T00:23:17;2.50;;;1.40;;
44842;SDS011;31884;52.538;13.820;2022-09-27T00:25:53;2.42;;;1.63;;
44842;SDS011;31884;52.538;13.820;2022-09-27T00:28:22;1.65;;;1.40;;
44842;SDS011;31884;52.538;13.820;2022-09-27T00:30:48;4.22;;;1.58;;
44842;SDS011;31884;52.538;13.820;2022-09-27T00:33:14;2.63;;;1.27;;
44842;SDS011;31884;52.538;13.820;2022-09-27T00:35:39;3.95;;;1.73;;
44842;SDS011;31884;52.538;13.820;2022-09-27T00:38:05;3.88;;;1.70;;
44842;SDS011;31884;52.538;13.820;2022-09-27T00:40:30;2.60;;;1.80;;
44842;SDS011;31884;52.538;13.820;2022-09-27T00:42:56;5.93;;;1.55;;
44842;SDS011;31884;52.538;13.820;2022-09-27T00:45:21;2.45;;;1.55;;
44842;SDS011;31884;52.538;13.820;2022-09-27T00:47:49;1.88;;;1.45;;
44842;SDS011;31884;52.538;13.820;2022-09-27T00:50:22;3.72;;;1.90;;
44842;SDS011;31884;52.538;13.820;2022-09-27T00:52:58;1.92;;;1.63;;
44842;SDS011;31884;52.538;13.820;2022-09-27T00:55:44;3.47;;;1.52;;
44842;SDS011;31884;52.538;13.820;2022-09-27T00:58:16;3.63;;;1.67;;
44842;SDS011;31884;52.538;13.820;2022-09-27T01:00:44;1.77;;;1.20;;
44842;SDS011;31884;52.538;13.820;2022-09-27T01:03:18;3.97;;;1.80;;
44842;SDS011;31884;52.538;13.820;2022-09-27T01:05:58;2.80;;;1.70;;
44842;SDS011;31884;52.538;13.820;2022-09-27T01:08:24;1.70;;;1.30;;
44842;SDS011;31884;52.538;13.820;2022-09-27T01:11:11;4.43;;;1.75;;
44842;SDS011;31884;52.538;13.820;2022-09-27T01:13:44;2.75;;;1.20;;
44842;SDS011;31884;52.538;13.820;2022-09-27T01:16:23;3.35;;;1.70;;
44842;SDS011;31884;52.538;13.820;2022-09-27T01:24:28;4.03;;;1.38;;
44842;SDS011;31884;52.538;13.820;2022-09-27T01:38:11;1.45;;;1.30;;
44842;SDS011;31884;52.538;13.820;2022-09-27T01:41:07;3.65;;;1.45;;
44842;SDS011;31884;52.538;13.820;2022-09-27T01:43:37;2.80;;;1.33;;
44842;SDS011;31884;52.538;13.820;2022-09-27T01:46:22;1.98;;;1.45;;
44842;SDS011;31884;52.538;13.820;2022-09-27T01:48:51;1.88;;;1.38;;
44842;SDS011;31884;52.538;13.820;2022-09-27T01:51:27;1.65;;;1.13;;
44842;SDS011;31884;52.538;13.820;2022-09-27T01:54:00;4.88;;;1.50;;
44842;SDS011;31884;52.538;13.820;2022-09-27T01:56:34;4.18;;;1.40;;
44842;SDS011;31884;52.538;13.820;2022-09-27T02:01:33;2.13;;;1.35;;
44842;SDS011;31884;52.538;13.820;2022-09-27T02:04:01;2.83;;;1.63;;
44842;SDS011;31884;52.538;13.820;2022-09-27T02:06:30;1.90;;;1.40;;
44842;SDS011;31884;52.538;13.820;2022-09-27T02:09:07;2.25;;;1.38;;
44842;SDS011;31884;52.538;13.820;2022-09-27T02:11:37;3.00;;;1.80;;
44842;SDS011;31884;52.538;13.820;2022-09-27T02:14:12;1.98;;;1.40;;
44842;SDS011;31884;52.538;13.820;2022-09-27T02:19:31;2.38;;;1.40;;
44842;SDS011;31884;52.538;13.820;2022-09-27T02:22:31;2.75;;;1.25;;
44842;SDS011;31884;52.538;13.820;2022-09-27T02:25:10;2.50;;;1.40;;
44842;SDS011;31884;52.538;13.820;2022-09-27T02:30:14;2.20;;;1.45;;
44842;SDS011;31884;52.538;13.820;2022-09-27T02:32:40;2.92;;;1.27;;
44842;SDS011;31884;52.538;13.820;2022-09-27T02:37:42;3.08;;;1.40;;
44842;SDS011;31884;52.538;13.820;2022-09-27T02:40:08;3.78;;;1.45;;
44842;SDS011;31884;52.538;13.820;2022-09-27T02:42:34;2.35;;;1.38;;
44842;SDS011;31884;52.538;13.820;2022-09-27T02:45:00;1.50;;;1.15;;
44842;SDS011;31884;52.538;13.820;2022-09-27T02:47:41;1.58;;;1.48;;
44842;SDS011;31884;52.538;13.820;2022-09-27T02:50:23;2.50;;;1.45;;
44842;SDS011;31884;52.538;13.820;2022-09-27T02:58:42;2.70;;;1.38;;
44842;SDS011;31884;52.538;13.820;2022-09-27T03:01:17;3.63;;;1.50;;
44842;SDS011;31884;52.538;13.820;2022-09-27T03:04:14;1.27;;;0.90;;
44842;SDS011;31884;52.538;13.820;2022-09-27T03:06:47;3.20;;;1.35;;
44842;SDS011;31884;52.538;13.820;2022-09-27T03:09:16;1.58;;;1.35;;
44842;SDS011;31884;52.538;13.820;2022-09-27T03:11:46;1.50;;;1.10;;
44842;SDS011;31884;52.538;13.820;2022-09-27T03:14:13;3.85;;;1.83;;
44842;SDS011;31884;52.538;13.820;2022-09-27T03:16:38;1.58;;;1.48;;
44842;SDS011;31884;52.538;13.820;2022-09-27T03:19:04;4.38;;;1.35;;
44842;SDS011;31884;52.538;13.820;2022-09-27T03:21:29;1.42;;;1.30;;
44842;SDS011;31884;52.538;13.820;2022-09-27T03:23:55;1.45;;;1.23;;
44842;SDS011;31884;52.538;13.820;2022-09-27T03:26:20;1.52;;;1.30;;
44842;SDS011;31884;52.538;13.820;2022-09-27T03:28:46;2.60;;;1.60;;
44842;SDS011;31884;52.538;13.820;2022-09-27T03:31:11;1.77;;;1.38;;
44842;SDS011;31884;52.538;13.820;2022-09-27T03:33:38;1.67;;;1.38;;
44842;SDS011;31884;52.538;13.820;2022-09-27T03:36:04;2.53;;;1.42;;
44842;SDS011;31884;52.538;13.820;2022-09-27T03:38:31;2.22;;;1.20;;
44842;SDS011;31884;52.538;13.820;2022-09-27T03:40:56;1.50;;;1.40;;
44842;SDS011;31884;52.538;13.820;2022-09-27T03:43:22;1.48;;;1.13;;
44842;SDS011;31884;52.538;13.820;2022-09-27T03:45:48;2.35;;;1.50;;
44842;SDS011;31884;52.538;13.820;2022-09-27T03:48:14;2.25;;;1.25;;
44842;SDS011;31884;52.538;13.820;2022-09-27T03:50:39;5.63;;;1.50;;
44842;SDS011;31884;52.538;13.820;2022-09-27T03:53:05;2.22;;;1.60;;
44842;SDS011;31884;52.538;13.820;2022-09-27T03:55:30;1.40;;;1.30;;
44842;SDS011;31884;52.538;13.820;2022-09-27T03:57:56;2.55;;;1.42;;
44842;SDS011;31884;52.538;13.820;2022-09-27T04:00:22;1.95;;;1.40;;
44842;SDS011;31884;52.538;13.820;2022-09-27T04:02:48;2.35;;;1.60;;
44842;SDS011;31884;52.538;13.820;2022-09-27T04:05:14;3.30;;;1.55;;
44842;SDS011;31884;52.538;13.820;2022-09-27T04:07:44;4.28;;;1.58;;
44842;SDS011;31884;52.538;13.820;2022-09-27T04:10:13;3.20;;;1.70;;
44842;SDS011;31884;52.538;13.820;2022-09-27T04:12:40;4.30;;;1.83;;
44842;SDS011;31884;52.538;13.820;2022-09-27T04:15:05;2.70;;;2.15;;
44842;SDS011;31884;52.538;13.820;2022-09-27T04:17:32;3.55;;;1.98;;
44842;SDS011;31884;52.538;13.820;2022-09-27T04:19:58;4.13;;;2.00;;
44842;SDS011;31884;52.538;13.820;2022-09-27T04:22:23;2.35;;;1.90;;
44842;SDS011;31884;52.538;13.820;2022-09-27T04:24:49;3.85;;;1.88;;
44842;SDS011;31884;52.538;13.820;2022-09-27T04:27:14;3.63;;;1.88;;
44842;SDS011;31884;52.538;13.820;2022-09-27T04:29:41;2.63;;;1.95;;
44842;SDS011;31884;52.538;13.820;2022-09-27T04:32:09;4.13;;;1.70;;
44842;SDS011;31884;52.538;13.820;2022-09-27T04:34:35;4.47;;;2.00;;
44842;SDS011;31884;52.538;13.820;2022-09-27T04:37:19;4.00;;;1.90;;
44842;SDS011;31884;52.538;13.820;2022-09-27T04:39:44;2.33;;;1.73;;
44842;SDS011;31884;52.538;13.820;2022-09-27T04:42:10;3.00;;;1.80;;
44842;SDS011;31884;52.538;13.820;2022-09-27T04:44:35;2.22;;;1.50;;
44842;SDS011;31884;52.538;13.820;2022-09-27T04:47:01;4.63;;;1.73;;
44842;SDS011;31884;52.538;13.820;2022-09-27T04:49:26;4.28;;;1.90;;
44842;SDS011;31884;52.538;13.820;2022-09-27T04:51:52;5.78;;;2.00;;
44842;SDS011;31884;52.538;13.820;2022-09-27T04:54:17;3.58;;;1.60;;
44842;SDS011;31884;52.538;13.820;2022-09-27T04:56:43;2.60;;;1.70;;
44842;SDS011;31884;52.538;13.820;2022-09-27T04:59:08;3.88;;;1.73;;
44842;SDS011;31884;52.538;13.820;2022-09-27T05:01:34;3.63;;;2.00;;
44842;SDS011;31884;52.538;13.820;2022-09-27T05:03:59;2.17;;;1.50;;
44842;SDS011;31884;52.538;13.820;2022-09-27T05:06:25;4.10;;;2.10;;
44842;SDS011;31884;52.538;13.820;2022-09-27T05:08:50;1.60;;;1.50;;
44842;SDS011;31884;52.538;13.820;2022-09-27T05:11:16;1.40;;;1.30;;
44842;SDS011;31884;52.538;13.820;2022-09-27T05:13:41;2.00;;;1.60;;
44842;SDS011;31884;52.538;13.820;2022-09-27T05:16:07;2.95;;;1.88;;
44842;SDS011;31884;52.538;13.820;2022-09-27T05:18:33;1.90;;;1.52;;
44842;SDS011;31884;52.538;13.820;2022-09-27T05:20:58;3.53;;;1.98;;
44842;SDS011;31884;52.538;13.820;2022-09-27T05:23:24;3.65;;;1.58;;
44842;SDS011;31884;52.538;13.820;2022-09-27T05:25:50;3.03;;;2.05;;
44842;SDS011;31884;52.538;13.820;2022-09-27T05:28:20;1.95;;;1.67;;
44842;SDS011;31884;52.538;13.820;2022-09-27T05:30:46;3.38;;;1.70;;
44842;SDS011;31884;52.538;13.820;2022-09-27T05:33:11;3.67;;;1.73;;
44842;SDS011;31884;52.538;13.820;2022-09-27T05:35:37;3.70;;;1.67;;
44842;SDS011;31884;52.538;13.820;2022-09-27T05:38:06;3.38;;;1.55;;
44842;SDS011;31884;52.538;13.820;2022-09-27T05:40:32;5.88;;;2.10;;
44842;SDS011;31884;52.538;13.820;2022-09-27T05:42:57;3.03;;;1.90;;
44842;SDS011;31884;52.538;13.820;2022-09-27T05:45:23;2.90;;;1.70;;
44842;SDS011;31884;52.538;13.820;2022-09-27T05:47:53;2.22;;;1.77;;
44842;SDS011;31884;52.538;13.820;2022-09-27T05:50:20;4.78;;;2.00;;
44842;SDS011;31884;52.538;13.820;2022-09-27T05:52:46;1.80;;;1.70;;
44842;SDS011;31884;52.538;13.820;2022-09-27T05:55:12;2.50;;;1.75;;
44842;SDS011;31884;52.538;13.820;2022-09-27T05:57:37;2.22;;;1.70;;
44842;SDS011;31884;52.538;13.820;2022-09-27T06:00:03;3.45;;;1.55;;
44842;SDS011;31884;52.538;13.820;2022-09-27T06:02:29;2.38;;;1.50;;
44842;SDS011;31884;52.538;13.820;2022-09-27T06:04:54;2.55;;;1.40;;
44842;SDS011;31884;52.538;13.820;2022-09-27T06:07:20;2.28;;;1.63;;
44842;SDS011;31884;52.538;13.820;2022-09-27T06:09:46;2.10;;;1.42;;
44842;SDS011;31884;52.538;13.820;2022-09-27T06:12:11;5.38;;;1.75;;
44842;SDS011;31884;52.538;13.820;2022-09-27T06:14:38;3.15;;;1.73;;
44842;SDS011;31884;52.538;13.820;2022-09-27T06:17:04;2.97;;;1.20;;
44842;SDS011;31884;52.538;13.820;2022-09-27T06:19:29;6.13;;;1.80;;
44842;SDS011;31884;52.538;13.820;2022-09-27T06:21:55;1.73;;;1.50;;
44842;SDS011;31884;52.538;13.820;2022-09-27T06:24:20;2.70;;;1.70;;
44842;SDS011;31884;52.538;13.820;2022-09-27T06:26:46;2.63;;;1.50;;
44842;SDS011;31884;52.538;13.820;2022-09-27T06:29:11;2.00;;;1.52;;
44842;SDS011;31884;52.538;13.820;2022-09-27T06:31:37;3.67;;;1.80;;
44842;SDS011;31884;52.538;13.820;2022-09-27T06:34:02;3.38;;;2.05;;
44842;SDS011;31884;52.538;13.820;2022-09-27T06:36:28;3.28;;;1.85;;
44842;SDS011;31884;52.538;13.820;2022-09-27T06:38:53;3.40;;;1.85;;
44842;SDS011;31884;52.538;13.820;2022-09-27T06:41:19;2.85;;;2.10;;
44842;SDS011;31884;52.538;13.820;2022-09-27T06:43:44;3.28;;;2.05;;
44842;SDS011;31884;52.538;13.820;2022-09-27T06:46:11;2.95;;;2.17;;
44842;SDS011;31884;52.538;13.820;2022-09-27T06:48:37;2.72;;;2.30;;
44842;SDS011;31884;52.538;13.820;2022-09-27T06:51:03;5.20;;;2.42;;
44842;SDS011;31884;52.538;13.820;2022-09-27T06:53:29;2.85;;;2.25;;
44842;SDS011;31884;52.538;13.820;2022-09-27T06:56:00;3.70;;;2.03;;
44842;SDS011;31884;52.538;13.820;2022-09-27T06:58:27;3.35;;;2.53;;
44842;SDS011;31884;52.538;13.820;2022-09-27T07:01:11;6.50;;;2.90;;
44842;SDS011;31884;52.538;13.820;2022-09-27T07:03:37;3.75;;;2.35;;
44842;SDS011;31884;52.538;13.820;2022-09-27T07:06:06;4.90;;;2.65;;
44842;SDS011;31884;52.538;13.820;2022-09-27T07:08:35;3.63;;;2.58;;
44842;SDS011;31884;52.538;13.820;2022-09-27T07:11:03;3.30;;;2.35;;
44842;SDS011;31884;52.538;13.820;2022-09-27T07:13:30;4.93;;;2.72;;
44842;SDS011;31884;52.538;13.820;2022-09-27T07:15:58;5.88;;;2.70;;
44842;SDS011;31884;52.538;13.820;2022-09-27T07:18:24;3.33;;;2.50;;
44842;SDS011;31884;52.538;13.820;2022-09-27T07:20:50;4.50;;;2.63;;
44842;SDS011;31884;52.538;13.820;2022-09-27T07:23:15;5.30;;;2.95;;
44842;SDS011;31884;52.538;13.820;2022-09-27T07:25:41;4.95;;;2.60;;
44842;SDS011;31884;52.538;13.820;2022-09-27T07:28:09;6.47;;;3.17;;
44842;SDS011;31884;52.538;13.820;2022-09-27T07:30:39;3.63;;;2.30;;
44842;SDS011;31884;52.538;13.820;2022-09-27T07:33:06;2.42;;;2.10;;
44842;SDS011;31884;52.538;13.820;2022-09-27T07:35:31;3.92;;;2.72;;
44842;SDS011;31884;52.538;13.820;2022-09-27T07:37:57;3.22;;;2.50;;
44842;SDS011;31884;52.538;13.820;2022-09-27T07:40:24;2.95;;;2.40;;
44842;SDS011;31884;52.538;13.820;2022-09-27T07:42:54;2.85;;;2.05;;
44842;SDS011;31884;52.538;13.820;2022-09-27T07:45:20;3.20;;;2.60;;
44842;SDS011;31884;52.538;13.820;2022-09-27T07:47:47;2.47;;;2.17;;
44842;SDS011;31884;52.538;13.820;2022-09-27T07:50:13;2.05;;;1.88;;
44842;SDS011;31884;52.538;13.820;2022-09-27T07:52:44;3.95;;;2.90;;
44842;SDS011;31884;52.538;13.820;2022-09-27T07:55:12;3.25;;;2.80;;
44842;SDS011;31884;52.538;13.820;2022-09-27T07:57:38;3.70;;;2.30;;
44842;SDS011;31884;52.538;13.820;2022-09-27T08:00:06;3.15;;;2.58;;
44842;SDS011;31884;52.538;13.820;2022-09-27T08:02:36;2.55;;;2.35;;
44842;SDS011;31884;52.538;13.820;2022-09-27T08:05:02;4.28;;;2.72;;
44842;SDS011;31884;52.538;13.820;2022-09-27T08:07:28;3.50;;;2.78;;
44842;SDS011;31884;52.538;13.820;2022-09-27T08:09:54;2.97;;;2.42;;
44842;SDS011;31884;52.538;13.820;2022-09-27T08:12:20;2.72;;;2.35;;
44842;SDS011;31884;52.538;13.820;2022-09-27T08:14:46;3.88;;;2.80;;
44842;SDS011;31884;52.538;13.820;2022-09-27T08:17:12;3.70;;;2.65;;
44842;SDS011;31884;52.538;13.820;2022-09-27T08:19:38;3.30;;;2.10;;
44842;SDS011;31884;52.538;13.820;2022-09-27T08:22:05;4.18;;;2.42;;
44842;SDS011;31884;52.538;13.820;2022-09-27T08:24:31;3.15;;;2.75;;
44842;SDS011;31884;52.538;13.820;2022-09-27T08:26:56;2.53;;;2.33;;
44842;SDS011;31884;52.538;13.820;2022-09-27T08:29:22;3.70;;;2.47;;
44842;SDS011;31884;52.538;13.820;2022-09-27T08:31:49;2.53;;;2.33;;
44842;SDS011;31884;52.538;13.820;2022-09-27T08:34:15;3.83;;;2.80;;
44842;SDS011;31884;52.538;13.820;2022-09-27T08:36:41;4.28;;;2.00;;
44842;SDS011;31884;52.538;13.820;2022-09-27T08:39:07;5.63;;;2.83;;
44842;SDS011;31884;52.538;13.820;2022-09-27T08:41:53;2.22;;;2.03;;
44842;SDS011;31884;52.538;13.820;2022-09-27T08:47:34;4.15;;;2.47;;
44842;SDS011;31884;52.538;13.820;2022-09-27T08:52:55;2.75;;;2.17;;
44842;SDS011;31884;52.538;13.820;2022-09-27T08:55:32;2.78;;;2.33;;
44842;SDS011;31884;52.538;13.820;2022-09-27T08:58:01;3.85;;;2.33;;
44842;SDS011;31884;52.538;13.820;2022-09-27T09:00:31;2.58;;;2.22;;
44842;SDS011;31884;52.538;13.820;2022-09-27T09:02:57;6.60;;;3.20;;
44842;SDS011;31884;52.538;13.820;2022-09-27T09:05:27;4.82;;;2.70;;
44842;SDS011;31884;52.538;13.820;2022-09-27T09:10:50;2.75;;;2.25;;
44842;SDS011;31884;52.538;13.820;2022-09-27T09:13:44;2.45;;;1.95;;
44842;SDS011;31884;52.538;13.820;2022-09-27T09:16:41;2.55;;;2.35;;
44842;SDS011;31884;52.538;13.820;2022-09-27T09:19:28;3.05;;;2.30;;
44842;SDS011;31884;52.538;13.820;2022-09-27T09:24:59;2.45;;;2.20;;
44842;SDS011;31884;52.538;13.820;2022-09-27T09:30:43;4.55;;;2.22;;
44842;SDS011;31884;52.538;13.820;2022-09-27T09:33:17;2.72;;;2.40;;
44842;SDS011;31884;52.538;13.820;2022-09-27T09:36:01;3.35;;;1.85;;
44842;SDS011;31884;52.538;13.820;2022-09-27T09:38:53;3.55;;;1.88;;
44842;SDS011;31884;52.538;13.820;2022-09-27T09:41:30;4.68;;;2.13;;
44842;SDS011;31884;52.538;13.820;2022-09-27T09:44:23;3.50;;;2.27;;
44842;SDS011;31884;52.538;13.820;2022-09-27T09:47:01;7.97;;;2.47;;
44842;SDS011;31884;52.538;13.820;2022-09-27T09:49:35;3.03;;;1.90;;
44842;SDS011;31884;52.538;13.820;2022-09-27T09:52:11;3.05;;;2.38;;
44842;SDS011;31884;52.538;13.820;2022-09-27T09:54:42;3.97;;;3.55;;
44842;SDS011;31884;52.538;13.820;2022-09-27T09:57:22;6.35;;;4.60;;
44842;SDS011;31884;52.538;13.820;2022-09-27T10:02:39;5.10;;;4.23;;
44842;SDS011;31884;52.538;13.820;2022-09-27T10:05:09;3.55;;;3.13;;
44842;SDS011;31884;52.538;13.820;2022-09-27T10:07:38;8.20;;;6.18;;
44842;SDS011;31884;52.538;13.820;2022-09-27T10:10:05;14.48;;;9.82;;
44842;SDS011;31884;52.538;13.820;2022-09-27T10:12:32;5.95;;;4.78;;
44842;SDS011;31884;52.538;13.820;2022-09-27T10:15:00;13.18;;;8.18;;
44842;SDS011;31884;52.538;13.820;2022-09-27T10:17:32;5.97;;;4.78;;
44842;SDS011;31884;52.538;13.820;2022-09-27T10:20:02;5.95;;;4.45;;
44842;SDS011;31884;52.538;13.820;2022-09-27T10:22:33;17.30;;;9.52;;
44842;SDS011;31884;52.538;13.820;2022-09-27T10:25:03;21.17;;;14.35;;
44842;SDS011;31884;52.538;13.820;2022-09-27T10:27:45;16.73;;;10.65;;
44842;SDS011;31884;52.538;13.820;2022-09-27T10:30:28;17.08;;;11.73;;
44842;SDS011;31884;52.538;13.820;2022-09-27T10:33:05;17.77;;;12.73;;
44842;SDS011;31884;52.538;13.820;2022-09-27T10:35:44;10.18;;;7.40;;
44842;SDS011;31884;52.538;13.820;2022-09-27T10:38:21;19.00;;;10.30;;
44842;SDS011;31884;52.538;13.820;2022-09-27T10:43:40;10.32;;;6.50;;
44842;SDS011;31884;52.538;13.820;2022-09-27T10:48:44;6.68;;;4.22;;
44842;SDS011;31884;52.538;13.820;2022-09-27T10:51:21;7.18;;;4.97;;
44842;SDS011;31884;52.538;13.820;2022-09-27T10:53:54;10.23;;;5.72;;
44842;SDS011;31884;52.538;13.820;2022-09-27T10:56:30;6.30;;;4.18;;
44842;SDS011;31884;52.538;13.820;2022-09-27T10:58:58;3.85;;;3.05;;
44842;SDS011;31884;52.538;13.820;2022-09-27T11:01:26;2.95;;;2.35;;
44842;SDS011;31884;52.538;13.820;2022-09-27T11:04:05;3.08;;;2.03;;
44842;SDS011;31884;52.538;13.820;2022-09-27T11:06:31;3.08;;;2.78;;
44842;SDS011;31884;52.538;13.820;2022-09-27T11:09:08;3.55;;;1.80;;
44842;SDS011;31884;52.538;13.820;2022-09-27T11:11:40;2.22;;;1.35;;
44842;SDS011;31884;52.538;13.820;2022-09-27T11:14:18;1.60;;;1.33;;
44842;SDS011;31884;52.538;13.820;2022-09-27T11:16:48;1.98;;;1.60;;
44842;SDS011;31884;52.538;13.820;2022-09-27T11:19:43;1.40;;;1.30;;
44842;SDS011;31884;52.538;13.820;2022-09-27T11:25:19;1.60;;;1.10;;
44842;SDS011;31884;52.538;13.820;2022-09-27T11:28:15;3.50;;;1.23;;
44842;SDS011;31884;52.538;13.820;2022-09-27T11:33:35;2.35;;;1.55;;
44842;SDS011;31884;52.538;13.820;2022-09-27T11:36:29;1.45;;;1.10;;
44842;SDS011;31884;52.538;13.820;2022-09-27T11:39:09;2.38;;;1.10;;
44842;SDS011;31884;52.538;13.820;2022-09-27T11:50:48;1.50;;;1.30;;
44842;SDS011;31884;52.538;13.820;2022-09-27T11:53:41;2.78;;;1.70;;
44842;SDS011;31884;52.538;13.820;2022-09-27T11:59:13;9.60;;;5.40;;
44842;SDS011;31884;52.538;13.820;2022-09-27T12:04:37;11.35;;;5.95;;
44842;SDS011;31884;52.538;13.820;2022-09-27T12:10:14;16.63;;;6.72;;
44842;SDS011;31884;52.538;13.820;2022-09-27T12:12:42;16.83;;;6.45;;
44842;SDS011;31884;52.538;13.820;2022-09-27T12:15:29;13.45;;;5.07;;
44842;SDS011;31884;52.538;13.820;2022-09-27T12:18:06;9.40;;;4.13;;
44842;SDS011;31884;52.538;13.820;2022-09-27T12:20:51;5.65;;;2.60;;
44842;SDS011;31884;52.538;13.820;2022-09-27T12:23:19;4.18;;;2.33;;
44842;SDS011;31884;52.538;13.820;2022-09-27T12:25:54;3.72;;;1.98;;
44842;SDS011;31884;52.538;13.820;2022-09-27T12:31:15;2.70;;;1.70;;
44842;SDS011;31884;52.538;13.820;2022-09-27T12:33:51;2.78;;;1.85;;
44842;SDS011;31884;52.538;13.820;2022-09-27T12:36:24;6.40;;;2.55;;
44842;SDS011;31884;52.538;13.820;2022-09-27T12:39:08;2.90;;;2.10;;
44842;SDS011;31884;52.538;13.820;2022-09-27T12:41:47;4.30;;;2.22;;
44842;SDS011;31884;52.538;13.820;2022-09-27T12:44:25;3.00;;;1.50;;
44842;SDS011;31884;52.538;13.820;2022-09-27T12:47:02;2.65;;;1.15;;
44842;SDS011;31884;52.538;13.820;2022-09-27T12:52:24;1.77;;;0.82;;
44842;SDS011;31884;52.538;13.820;2022-09-27T12:55:17;1.33;;;1.00;;
44842;SDS011;31884;52.538;13.820;2022-09-27T12:58:03;2.05;;;0.90;;
44842;SDS011;31884;52.538;13.820;2022-09-27T13:01:02;1.30;;;0.70;;
44842;SDS011;31884;52.538;13.820;2022-09-27T13:06:46;1.63;;;0.60;;
44842;SDS011;31884;52.538;13.820;2022-09-27T13:09:54;1.13;;;0.70;;
44842;SDS011;31884;52.538;13.820;2022-09-27T13:12:31;0.57;;;0.57;;
44842;SDS011;31884;52.538;13.820;2022-09-27T13:22:51;1.00;;;0.70;;
44842;SDS011;31884;52.538;13.820;2022-09-27T13:31:12;2.35;;;0.90;;
44842;SDS011;31884;52.538;13.820;2022-09-27T13:33:45;4.18;;;1.83;;
44842;SDS011;31884;52.538;13.820;2022-09-27T13:39:00;2.83;;;1.73;;
44842;SDS011;31884;52.538;13.820;2022-09-27T13:41:33;5.30;;;2.30;;
44842;SDS011;31884;52.538;13.820;2022-09-27T13:46:49;8.63;;;3.03;;
44842;SDS011;31884;52.538;13.820;2022-09-27T13:49:30;3.42;;;2.10;;
44842;SDS011;31884;52.538;13.820;2022-09-27T13:52:15;4.97;;;1.92;;
44842;SDS011;31884;52.538;13.820;2022-09-27T13:54:52;3.05;;;2.03;;
44842;SDS011;31884;52.538;13.820;2022-09-27T13:57:37;5.05;;;2.00;;
44842;SDS011;31884;52.538;13.820;2022-09-27T14:00:12;1.60;;;1.40;;
44842;SDS011;31884;52.538;13.820;2022-09-27T14:02:41;2.50;;;1.38;;
44842;SDS011;31884;52.538;13.820;2022-09-27T14:05:17;3.63;;;1.83;;
44842;SDS011;31884;52.538;13.820;2022-09-27T14:07:47;6.43;;;2.80;;
44842;SDS011;31884;52.538;13.820;2022-09-27T14:10:15;6.22;;;2.97;;
44842;SDS011;31884;52.538;13.820;2022-09-27T14:12:44;23.98;;;9.02;;
44842;SDS011;31884;52.538;13.820;2022-09-27T14:15:17;10.82;;;5.15;;
44842;SDS011;31884;52.538;13.820;2022-09-27T14:17:46;6.03;;;2.42;;
44842;SDS011;31884;52.538;13.820;2022-09-27T14:20:28;2.75;;;1.90;;
44842;SDS011;31884;52.538;13.820;2022-09-27T14:23:02;3.95;;;2.40;;
44842;SDS011;31884;52.538;13.820;2022-09-27T14:25:28;4.60;;;1.92;;
44842;SDS011;31884;52.538;13.820;2022-09-27T14:27:54;2.60;;;1.38;;
44842;SDS011;31884;52.538;13.820;2022-09-27T14:30:23;2.42;;;1.25;;
44842;SDS011;31884;52.538;13.820;2022-09-27T14:32:52;2.38;;;1.10;;
44842;SDS011;31884;52.538;13.820;2022-09-27T14:35:22;1.70;;;1.15;;
44842;SDS011;31884;52.538;13.820;2022-09-27T14:38:10;1.50;;;1.40;;
44842;SDS011;31884;52.538;13.820;2022-09-27T14:40:59;1.58;;;1.13;;
44842;SDS011;31884;52.538;13.820;2022-09-27T14:43:26;3.72;;;1.63;;
44842;SDS011;31884;52.538;13.820;2022-09-27T14:45:57;1.42;;;1.13;;
44842;SDS011;31884;52.538;13.820;2022-09-27T14:48:29;2.00;;;1.17;;
44842;SDS011;31884;52.538;13.820;2022-09-27T14:50:57;1.52;;;1.10;;
44842;SDS011;31884;52.538;13.820;2022-09-27T14:53:29;3.90;;;1.70;;
44842;SDS011;31884;52.538;13.820;2022-09-27T14:55:57;3.38;;;2.13;;
44842;SDS011;31884;52.538;13.820;2022-09-27T14:58:24;28.95;;;9.55;;
44842;SDS011;31884;52.538;13.820;2022-09-27T15:00:50;17.33;;;8.25;;
44842;SDS011;31884;52.538;13.820;2022-09-27T15:03:29;10.13;;;5.55;;
44842;SDS011;31884;52.538;13.820;2022-09-27T15:05:57;7.80;;;4.18;;
44842;SDS011;31884;52.538;13.820;2022-09-27T15:08:24;5.85;;;3.70;;
44842;SDS011;31884;52.538;13.820;2022-09-27T15:10:54;5.75;;;3.65;;
44842;SDS011;31884;52.538;13.820;2022-09-27T15:13:20;4.00;;;2.55;;
44842;SDS011;31884;52.538;13.820;2022-09-27T15:15:48;5.55;;;2.58;;
44842;SDS011;31884;52.538;13.820;2022-09-27T15:21:01;3.50;;;2.47;;
44842;SDS011;31884;52.538;13.820;2022-09-27T15:23:29;5.32;;;3.03;;
44842;SDS011;31884;52.538;13.820;2022-09-27T15:28:34;5.70;;;4.40;;
44842;SDS011;31884;52.538;13.820;2022-09-27T15:31:02;6.55;;;3.67;;
44842;SDS011;31884;52.538;13.820;2022-09-27T15:33:29;9.75;;;5.82;;
44842;SDS011;31884;52.538;13.820;2022-09-27T15:35:57;3.30;;;2.70;;
44842;SDS011;31884;52.538;13.820;2022-09-27T15:38:34;5.10;;;3.05;;
44842;SDS011;31884;52.538;13.820;2022-09-27T15:41:58;2.15;;;1.85;;
44842;SDS011;31884;52.538;13.820;2022-09-27T15:47:36;2.40;;;2.00;;
44842;SDS011;31884;52.538;13.820;2022-09-27T15:52:47;1.45;;;1.23;;
44842;SDS011;31884;52.538;13.820;2022-09-27T15:55:15;2.08;;;1.52;;
44842;SDS011;31884;52.538;13.820;2022-09-27T15:57:43;2.67;;;1.58;;
44842;SDS011;31884;52.538;13.820;2022-09-27T16:00:26;2.15;;;1.88;;
44842;SDS011;31884;52.538;13.820;2022-09-27T16:02:53;4.47;;;2.08;;
44842;SDS011;31884;52.538;13.820;2022-09-27T16:05:19;3.00;;;1.90;;
44842;SDS011;31884;52.538;13.820;2022-09-27T16:07:46;2.58;;;1.70;;
44842;SDS011;31884;52.538;13.820;2022-09-27T16:10:16;3.00;;;2.05;;
44842;SDS011;31884;52.538;13.820;2022-09-27T16:12:43;1.80;;;1.58;;
44842;SDS011;31884;52.538;13.820;2022-09-27T16:15:10;4.68;;;2.28;;
44842;SDS011;31884;52.538;13.820;2022-09-27T16:17:36;4.20;;;2.38;;
44842;SDS011;31884;52.538;13.820;2022-09-27T16:20:03;2.53;;;1.90;;
44842;SDS011;31884;52.538;13.820;2022-09-27T16:22:29;3.03;;;2.00;;
44842;SDS011;31884;52.538;13.820;2022-09-27T16:24:55;3.15;;;2.22;;
44842;SDS011;31884;52.538;13.820;2022-09-27T16:27:24;2.35;;;1.75;;
44842;SDS011;31884;52.538;13.820;2022-09-27T16:29:51;3.60;;;2.00;;
44842;SDS011;31884;52.538;13.820;2022-09-27T16:32:17;3.50;;;2.00;;
44842;SDS011;31884;52.538;13.820;2022-09-27T16:34:43;3.28;;;1.90;;
44842;SDS011;31884;52.538;13.820;2022-09-27T16:39:34;1.83;;;1.73;;
44842;SDS011;31884;52.538;13.820;2022-09-27T16:41:59;4.30;;;1.90;;
44842;SDS011;31884;52.538;13.820;2022-09-27T16:44:29;3.95;;;3.00;;
44842;SDS011;31884;52.538;13.820;2022-09-27T16:46:55;5.32;;;2.50;;
44842;SDS011;31884;52.538;13.820;2022-09-27T16:49:20;8.18;;;3.10;;
44842;SDS011;31884;52.538;13.820;2022-09-27T16:52:04;3.17;;;2.00;;
44842;SDS011;31884;52.538;13.820;2022-09-27T16:54:30;2.97;;;2.03;;
44842;SDS011;31884;52.538;13.820;2022-09-27T16:56:56;3.13;;;2.30;;